Tuesday, January 22, 2019, 3:57 PM EST
Back to Local

KFZY, Fulton Oswego County Airport

Location: Fulton, NY, United States Lat: 43.35
Local Time: 3:57 PM EST (20:57 GMT) Lon: -76.383
Time Zone: US/Eastern Elev: 475 ft

Show me the last for .
Show Decoded

2019-01-22 14:54 METAR KFZY 221954Z AUTO 13006KT 10SM BKN100 M09/M16 A3054 RMK AO2 SLP352
                 T10941161 =
2019-01-22 13:54 METAR KFZY 221854Z AUTO VRB05KT 10SM CLR M09/M17 A3057 RMK AO2 SLP363 T10941167
                 =
2019-01-22 12:54 METAR KFZY 221754Z AUTO 13004KT 10SM CLR M11/M18 A3060 RMK AO2 SLP372 60000
                 T11061178 11106 21183 58015 =
2019-01-22 11:54 METAR KFZY 221654Z AUTO VRB05KT 10SM CLR M12/M18 A3063 RMK AO2 SLP383 T11171183
                 =
2019-01-22 10:54 METAR KFZY 221554Z AUTO 16005KT 10SM CLR M13/M19 A3064 RMK AO2 SLP389 T11331194
                 =
2019-01-22 09:54 METAR KFZY 221454Z AUTO VRB03KT 10SM CLR M16/M22 A3064 RMK AO2 SNE21 SLP389
                 P0000 60000 T11561217 50005 =
2019-01-22 09:40 METAR KFZY 221440Z AUTO 16005KT 10SM FEW007 M16/M22 A3065 RMK AO2 SNE21 P0000
                 T11611222 =
2019-01-22 09:32 METAR KFZY 221432Z AUTO VRB05KT 10SM SCT007 BKN015 M17/M22 A3065 RMK AO2 SNE21
                 P0000 T11671222 =
2019-01-22 09:24 METAR KFZY 221424Z AUTO 13004KT 7SM BKN007 BKN015 M17/M22 A3065 RMK AO2 SNE21
                 P0000 T11721222 =
2019-01-22 09:15 METAR KFZY 221415Z AUTO 13005KT 4SM -SN SCT007 OVC015 M17/M22 A3064 RMK AO2
                 P0000 T11671222 =
2019-01-22 08:54 METAR KFZY 221354Z AUTO 12003KT 3SM -SN OVC016 M18/M23 A3065 RMK AO2 SNB40
                 SLP392 P0000 T11781233 =
2019-01-22 08:39 METAR KFZY 221339Z AUTO 14004KT 6SM HZ OVC015 M18/M23 A3066 RMK AO2 T11781233 =
2019-01-22 08:23 METAR KFZY 221323Z AUTO 12004KT 10SM FEW006 OVC013 M18/M24 A3066 RMK AO2
                 T11831239 =
2019-01-22 07:54 METAR KFZY 221254Z AUTO VRB03KT 10SM OVC013 M18/M23 A3066 RMK AO2 SNE1159 SLP395
                 P0000 T11781233 =
2019-01-22 07:11 METAR KFZY 221211Z AUTO 00000KT 10SM OVC014 M18/M23 A3064 RMK AO2 SNE1159 P0000
                 T11781233 =
2019-01-22 06:54 METAR KFZY 221154Z AUTO 00000KT 6SM -SN OVC015 M18/M23 A3063 RMK AO2 SNB00
                 SLP385 P0000 60000 I6001 T11781233 11156 21194 51010 =
2019-01-22 05:54 METAR KFZY 221054Z AUTO 00000KT 7SM OVC016 M17/M22 A3062 RMK AO2 SNE54 SLP382
                 P0000 T11721222 =
2019-01-22 04:54 METAR KFZY 220954Z AUTO 00000KT 5SM -SN OVC017 M18/M22 A3063 RMK AO2 SNB15
                 SLP385 P0000 T11781217 =
2019-01-22 03:54 METAR KFZY 220854Z AUTO 00000KT 10SM OVC017 M19/M23 A3060 RMK AO2 SLP374 I3001
                 T11941228 53028 =
2019-01-22 03:13 METAR KFZY 220813Z AUTO 00000KT 10SM BKN018 M16/M20 A3057 RMK AO2 T11611200 =
2019-01-22 02:54 METAR KFZY 220754Z AUTO 00000KT 10SM CLR M18/M22 A3056 RMK AO2 SLP362 I1001
                 T11831217 =
2019-01-22 01:54 METAR KFZY 220654Z AUTO 00000KT 10SM FEW019 M18/M21 A3054 RMK AO2 SLP354
                 T11781206 =
2019-01-22 00:54 METAR KFZY 220554Z AUTO 35003KT 10SM CLR M16/M20 A3051 RMK AO2 SLP346 T11561200
                 11117 21161 50014 =
2019-01-21 23:54 METAR KFZY 220454Z AUTO 33007KT 10SM CLR M14/M19 A3052 RMK AO2 SLP347 T11391189
                 411171194 =
2019-01-21 22:54 METAR KFZY 220354Z AUTO 33007KT 10SM CLR M13/M18 A3049 RMK AO2 SLP339 T11331183
                 =
2019-01-21 21:54 METAR KFZY 220254Z AUTO 32010KT 10SM CLR M12/M18 A3047 RMK AO2 SLP330 T11221183
                 53028 =
2019-01-21 20:54 METAR KFZY 220154Z AUTO 32009KT 10SM CLR M12/M19 A3044 RMK AO2 SLP320 T11221189
                 =
2019-01-21 19:54 METAR KFZY 220054Z AUTO 31011KT 10SM FEW027 M12/M18 A3041 RMK AO2 SLP311
                 T11221183 =
2019-01-21 18:54 METAR KFZY 212354Z AUTO 31010KT 10SM SCT028 M12/M19 A3039 RMK AO2 SLP303 60000
                 T11221189 11122 21161 53021 =
2019-01-21 17:54 METAR KFZY 212254Z AUTO 31013KT 10SM SCT031 M13/M20 A3036 RMK AO2 UPB35E44
                 SLP295 P0000 T11331200 =
2019-01-21 16:54 METAR KFZY 212154Z AUTO 30012KT 10SM FEW030 SCT035 M14/M21 A3035 RMK AO2 SLP289
                 T11391206 =

Support USWX by starting your Amazon purchase here.